Time;durP1;ratioP1;P1;durP2;ratioP2;P2;SDS_P1;SDS_P2;PMS_P1;PMS_P2;Temp;Humidity;BMP_temperature;BMP_pressure;BME280_temperature;BME280_humidity;BME280_pressure;Samples;Min_cycle;Max_cycle;Signal;HPM_P1;HPM_P2
2022/04/30 00:01:18;;;;;;;10.63;6.45;;;;;;;;;;5026105;28;20025;-74
2022/04/30 00:03:44;;;;;;;14.68;6.97;;;;;;;;;;5028096;28;20037;-75
2022/04/30 00:06:09;;;;;;;11.00;6.93;;;;;;;;;;5022596;28;20036;-76
2022/04/30 00:08:34;;;;;;;9.02;6.15;;;;;;;;;;5026666;28;20021;-75
2022/04/30 00:11:00;;;;;;;10.00;6.60;;;;;;;;;;5025041;28;20017;-75
2022/04/30 00:13:25;;;;;;;11.02;6.60;;;;;;;;;;5021420;28;20032;-76
2022/04/30 00:15:50;;;;;;;11.57;6.65;;;;;;;;;;5005469;28;20043;-76
2022/04/30 00:18:16;;;;;;;9.07;6.68;;;;;;;;;;5022855;28;20461;-75
2022/04/30 00:20:46;;;;;;;11.35;6.82;;;;;;;;;;5022029;28;20127;-76
2022/04/30 00:23:19;;;;;;;8.68;6.18;;;;;;;;;;5025886;28;20049;-75
2022/04/30 00:25:54;;;;;;;12.00;6.72;;;;;;;;;;5024731;28;20041;-76
2022/04/30 00:28:20;;;;;;;9.85;6.50;;;;;;;;;;5022469;28;20025;-75
2022/04/30 00:30:46;;;;;;;11.85;6.50;;;;;;;;;;5023636;28;20021;-75
2022/04/30 00:33:12;;;;;;;10.35;6.63;;;;;;;;;;5024884;28;20071;-75
2022/04/30 00:35:37;;;;;;;8.85;6.65;;;;;;;;;;5023607;28;20119;-75
2022/04/30 00:38:04;;;;;;;10.90;6.85;;;;;;;;;;5023455;28;20036;-75
2022/04/30 00:40:31;;;;;;;10.68;6.63;;;;;;;;;;5023789;28;20056;-75
2022/04/30 00:42:56;;;;;;;9.52;6.90;;;;;;;;;;5024212;28;20033;-75
2022/04/30 00:45:21;;;;;;;10.35;7.18;;;;;;;;;;5020379;28;20029;-76
2022/04/30 00:47:47;;;;;;;9.45;7.22;;;;;;;;;;5023775;28;20484;-75
2022/04/30 00:50:16;;;;;;;12.15;7.50;;;;;;;;;;5019715;28;20097;-75
2022/04/30 00:52:42;;;;;;;9.70;7.88;;;;;;;;;;5027429;28;20075;-76
2022/04/30 00:55:08;;;;;;;11.50;7.97;;;;;;;;;;5022587;28;20186;-76
2022/04/30 00:57:36;;;;;;;10.02;7.57;;;;;;;;;;5005532;28;20112;-76
2022/04/30 01:00:03;;;;;;;13.45;7.78;;;;;;;;;;5019964;28;20036;-76
2022/04/30 01:02:29;;;;;;;14.07;8.45;;;;;;;;;;5004199;28;20155;-75
2022/04/30 01:04:55;;;;;;;11.18;6.90;;;;;;;;;;5020012;28;20112;-75
2022/04/30 01:07:20;;;;;;;11.48;7.22;;;;;;;;;;5022027;28;20036;-75
2022/04/30 01:09:46;;;;;;;11.98;7.20;;;;;;;;;;5024515;28;20024;-75
2022/04/30 01:12:13;;;;;;;10.85;7.63;;;;;;;;;;5020712;28;20083;-75
2022/04/30 01:14:39;;;;;;;11.38;7.22;;;;;;;;;;5004108;28;20017;-75
2022/04/30 01:17:05;;;;;;;11.52;7.30;;;;;;;;;;5024846;28;20024;-75
2022/04/30 01:19:36;;;;;;;11.00;7.05;;;;;;;;;;5024804;28;20049;-75
2022/04/30 01:22:08;;;;;;;9.63;7.25;;;;;;;;;;5022882;28;20017;-77
2022/04/30 01:24:34;;;;;;;11.90;7.78;;;;;;;;;;5025201;28;20575;-74
2022/04/30 01:27:00;;;;;;;10.93;7.88;;;;;;;;;;5033642;28;20045;-74
2022/04/30 01:29:27;;;;;;;14.32;8.13;;;;;;;;;;5032610;28;20021;-73
2022/04/30 01:37:22;;;;;;;12.18;7.93;;;;;;;;;;5033267;28;20224;-74
2022/04/30 01:39:51;;;;;;;14.00;7.32;;;;;;;;;;5034894;28;20033;-74
2022/04/30 01:42:17;;;;;;;11.05;7.88;;;;;;;;;;5028910;28;20203;-75
2022/04/30 01:44:46;;;;;;;10.52;7.47;;;;;;;;;;5027961;28;20117;-74
2022/04/30 01:47:15;;;;;;;11.38;8.20;;;;;;;;;;5032212;28;20037;-75
2022/04/30 01:49:41;;;;;;;12.93;8.68;;;;;;;;;;5029400;28;20120;-75
2022/04/30 01:52:07;;;;;;;11.13;7.32;;;;;;;;;;5029457;28;20017;-76
2022/04/30 01:54:33;;;;;;;12.55;8.23;;;;;;;;;;5031781;28;20283;-73
2022/04/30 01:56:58;;;;;;;13.45;8.68;;;;;;;;;;5032730;28;20025;-74
2022/04/30 01:59:23;;;;;;;10.93;8.10;;;;;;;;;;5029804;28;20444;-76
2022/04/30 02:01:49;;;;;;;11.82;8.43;;;;;;;;;;5032031;28;20037;-74
2022/04/30 02:04:18;;;;;;;13.85;9.23;;;;;;;;;;5023232;28;20075;-74
2022/04/30 02:06:44;;;;;;;14.63;9.38;;;;;;;;;;5023535;28;20162;-73
2022/04/30 02:09:09;;;;;;;12.32;9.25;;;;;;;;;;5028269;28;20271;-73
2022/04/30 02:11:35;;;;;;;18.15;9.88;;;;;;;;;;5005576;28;20037;-74
2022/04/30 02:14:01;;;;;;;14.00;9.48;;;;;;;;;;5005081;28;20465;-74
2022/04/30 02:16:27;;;;;;;15.40;9.40;;;;;;;;;;5004444;28;20029;-75
2022/04/30 02:18:53;;;;;;;12.63;9.52;;;;;;;;;;5023483;28;20041;-75
2022/04/30 02:21:21;;;;;;;13.65;10.18;;;;;;;;;;5019835;28;20154;-74
2022/04/30 02:23:47;;;;;;;15.60;9.40;;;;;;;;;;5025039;28;20045;-74
2022/04/30 02:26:14;;;;;;;14.15;9.43;;;;;;;;;;5005863;28;20026;-75
2022/04/30 02:28:41;;;;;;;11.82;9.27;;;;;;;;;;5019318;28;20024;-74
2022/04/30 02:31:06;;;;;;;12.57;10.02;;;;;;;;;;5021215;28;20119;-76
2022/04/30 02:33:31;;;;;;;11.55;9.35;;;;;;;;;;5022331;28;20480;-75
2022/04/30 02:35:58;;;;;;;12.25;9.27;;;;;;;;;;5019267;28;20072;-75
2022/04/30 02:38:24;;;;;;;11.25;9.63;;;;;;;;;;5023670;28;20022;-75
2022/04/30 02:40:49;;;;;;;12.80;9.75;;;;;;;;;;5023474;28;20086;-75
2022/04/30 02:43:18;;;;;;;14.55;9.82;;;;;;;;;;5003133;28;20136;-75
2022/04/30 02:45:43;;;;;;;12.80;9.85;;;;;;;;;;5020555;28;20064;-75
2022/04/30 02:48:09;;;;;;;13.38;9.68;;;;;;;;;;5022179;28;20018;-76
2022/04/30 02:50:35;;;;;;;11.55;9.45;;;;;;;;;;5019175;28;20056;-75
2022/04/30 02:53:00;;;;;;;15.52;9.45;;;;;;;;;;5023341;28;20036;-75
2022/04/30 02:55:25;;;;;;;13.20;9.35;;;;;;;;;;5018662;28;20389;-75
2022/04/30 03:00:39;;;;;;;13.68;8.60;;;;;;;;;;5019510;28;20601;-75
2022/04/30 03:03:09;;;;;;;11.10;8.27;;;;;;;;;;5021767;28;20117;-76
2022/04/30 03:05:34;;;;;;;13.55;8.88;;;;;;;;;;5017884;28;20040;-77
2022/04/30 03:08:00;;;;;;;11.20;8.23;;;;;;;;;;5023272;28;20029;-76
2022/04/30 03:10:25;;;;;;;10.45;8.60;;;;;;;;;;5020135;28;20103;-76
2022/04/30 03:12:51;;;;;;;12.73;8.30;;;;;;;;;;5021763;28;20510;-75
2022/04/30 03:15:22;;;;;;;10.93;8.20;;;;;;;;;;5003897;28;20029;-73
2022/04/30 03:23:16;;;;;;;12.68;8.63;;;;;;;;;;5027511;28;20020;-75
2022/04/30 03:25:42;;;;;;;12.05;8.20;;;;;;;;;;5025504;28;20026;-75
2022/04/30 03:28:07;;;;;;;10.57;7.60;;;;;;;;;;5025858;28;20025;-77
2022/04/30 03:30:32;;;;;;;10.45;7.93;;;;;;;;;;5023394;28;20107;-76
2022/04/30 03:32:58;;;;;;;10.90;8.30;;;;;;;;;;5026795;28;20503;-75
2022/04/30 03:35:26;;;;;;;12.68;8.40;;;;;;;;;;5020031;28;20061;-77
2022/04/30 03:37:51;;;;;;;11.27;8.48;;;;;;;;;;5025392;28;20506;-75
2022/04/30 03:40:16;;;;;;;10.20;8.85;;;;;;;;;;5007376;28;20029;-75
2022/04/30 03:42:42;;;;;;;12.02;9.63;;;;;;;;;;5005647;28;20539;-76
2022/04/30 03:45:07;;;;;;;13.25;9.15;;;;;;;;;;5024119;28;20025;-76
2022/04/30 03:47:32;;;;;;;12.27;8.48;;;;;;;;;;5025112;28;20037;-76
2022/04/30 03:49:59;;;;;;;11.25;8.60;;;;;;;;;;5006231;28;20269;-76
2022/04/30 03:52:24;;;;;;;12.43;9.15;;;;;;;;;;5025763;28;20028;-75
2022/04/30 03:54:50;;;;;;;12.07;8.70;;;;;;;;;;5023997;28;20022;-76
2022/04/30 03:57:16;;;;;;;10.25;7.80;;;;;;;;;;5008399;28;20018;-76
2022/04/30 03:59:41;;;;;;;9.75;7.85;;;;;;;;;;5025030;28;20750;-76
2022/04/30 04:02:06;;;;;;;9.93;7.97;;;;;;;;;;5024982;28;20025;-75
2022/04/30 04:04:31;;;;;;;12.32;8.32;;;;;;;;;;5025749;28;20032;-74
2022/04/30 04:06:57;;;;;;;9.35;7.28;;;;;;;;;;5022090;28;20329;-75
2022/04/30 04:09:23;;;;;;;11.32;8.40;;;;;;;;;;5025949;28;20025;-76
2022/04/30 04:11:49;;;;;;;12.15;8.55;;;;;;;;;;5022782;28;20329;-75
2022/04/30 04:19:45;;;;;;;12.10;8.38;;;;;;;;;;5026728;28;20065;-75
2022/04/30 04:22:13;;;;;;;11.18;7.88;;;;;;;;;;5009974;28;20250;-76
2022/04/30 04:27:22;;;;;;;9.57;7.63;;;;;;;;;;5025375;28;20182;-75
2022/04/30 04:29:47;;;;;;;9.73;7.63;;;;;;;;;;5018988;28;20033;-75
2022/04/30 04:32:13;;;;;;;13.13;8.25;;;;;;;;;;5025276;28;20022;-75
2022/04/30 04:34:39;;;;;;;12.25;8.30;;;;;;;;;;5021417;28;20021;-75
2022/04/30 04:37:04;;;;;;;12.55;8.02;;;;;;;;;;5020615;28;20114;-75
2022/04/30 04:39:30;;;;;;;12.68;8.52;;;;;;;;;;5005662;28;20072;-75
2022/04/30 04:41:55;;;;;;;11.45;7.50;;;;;;;;;;5021334;28;20021;-75
2022/04/30 04:44:21;;;;;;;8.68;6.88;;;;;;;;;;5020935;28;20480;-75
2022/04/30 04:46:46;;;;;;;8.43;5.90;;;;;;;;;;5021602;28;20177;-75
2022/04/30 04:49:11;;;;;;;7.88;5.65;;;;;;;;;;5023637;28;20025;-75
2022/04/30 04:51:37;;;;;;;9.18;6.00;;;;;;;;;;5017392;28;20021;-76
2022/04/30 04:54:02;;;;;;;9.43;6.10;;;;;;;;;;5021865;28;20018;-76
2022/04/30 04:56:31;;;;;;;7.68;6.10;;;;;;;;;;5020246;28;20481;-75
2022/04/30 04:58:56;;;;;;;8.38;5.85;;;;;;;;;;5020484;28;20466;-75
2022/04/30 05:01:21;;;;;;;10.07;6.22;;;;;;;;;;5023650;28;20112;-75
2022/04/30 05:03:47;;;;;;;8.13;6.25;;;;;;;;;;5021201;28;20025;-75
2022/04/30 05:06:12;;;;;;;7.53;6.07;;;;;;;;;;5003476;28;20115;-75
2022/04/30 05:08:38;;;;;;;7.88;5.97;;;;;;;;;;5020766;28;20108;-74
2022/04/30 05:11:03;;;;;;;10.98;6.53;;;;;;;;;;5022366;28;20021;-75
2022/04/30 05:13:29;;;;;;;7.65;6.40;;;;;;;;;;5019334;28;20108;-75
2022/04/30 05:15:55;;;;;;;6.18;5.53;;;;;;;;;;5004080;28;20041;-75
2022/04/30 05:18:21;;;;;;;7.28;5.88;;;;;;;;;;5022380;28;20096;-75
2022/04/30 05:20:49;;;;;;;11.98;6.78;;;;;;;;;;5017973;28;20107;-76
2022/04/30 05:23:14;;;;;;;9.57;5.90;;;;;;;;;;5021948;28;20162;-76
2022/04/30 05:25:43;;;;;;;12.00;6.10;;;;;;;;;;5002647;28;20093;-75
2022/04/30 05:28:08;;;;;;;7.53;5.85;;;;;;;;;;5022225;28;20415;-75
2022/04/30 05:30:34;;;;;;;6.82;5.82;;;;;;;;;;5019186;28;20456;-75
2022/04/30 05:32:59;;;;;;;8.07;5.65;;;;;;;;;;5022554;28;20496;-76
2022/04/30 05:35:24;;;;;;;10.68;6.95;;;;;;;;;;5018720;28;20021;-76
2022/04/30 05:37:50;;;;;;;8.65;5.72;;;;;;;;;;5022564;28;20033;-76
2022/04/30 05:40:16;;;;;;;10.75;6.28;;;;;;;;;;5007503;28;20064;-75
2022/04/30 05:42:41;;;;;;;7.72;5.95;;;;;;;;;;5021509;28;20109;-75
2022/04/30 05:45:07;;;;;;;13.20;6.63;;;;;;;;;;5020567;28;20332;-76
2022/04/30 05:47:32;;;;;;;9.57;6.50;;;;;;;;;;5023691;28;20105;-74
2022/04/30 05:49:58;;;;;;;7.35;5.85;;;;;;;;;;5002587;28;20033;-76
2022/04/30 05:52:23;;;;;;;7.05;6.15;;;;;;;;;;5023872;28;20051;-75
2022/04/30 05:54:49;;;;;;;7.35;5.80;;;;;;;;;;5018389;28;20411;-76
2022/04/30 05:57:14;;;;;;;9.23;6.22;;;;;;;;;;5021432;28;20052;-75
2022/04/30 05:59:39;;;;;;;9.63;6.32;;;;;;;;;;5019372;28;20390;-74
2022/04/30 06:02:04;;;;;;;11.20;7.03;;;;;;;;;;5024079;28;20192;-76
2022/04/30 06:04:29;;;;;;;8.00;6.10;;;;;;;;;;5023947;28;20029;-74
2022/04/30 06:06:55;;;;;;;8.43;5.90;;;;;;;;;;5017074;28;20025;-75
2022/04/30 06:09:23;;;;;;;8.98;5.70;;;;;;;;;;5021370;28;20064;-75
2022/04/30 06:11:48;;;;;;;9.88;6.45;;;;;;;;;;5020156;28;20395;-75
2022/04/30 06:14:14;;;;;;;9.43;6.25;;;;;;;;;;5021032;28;20084;-76
2022/04/30 06:16:39;;;;;;;8.82;5.75;;;;;;;;;;5021765;28;20049;-74
2022/04/30 06:19:04;;;;;;;7.10;5.28;;;;;;;;;;5023339;28;20115;-76
2022/04/30 06:21:29;;;;;;;5.47;4.97;;;;;;;;;;5019568;28;20045;-76
2022/04/30 06:23:55;;;;;;;6.13;5.07;;;;;;;;;;5022095;28;20087;-76
2022/04/30 06:26:21;;;;;;;8.45;5.18;;;;;;;;;;5022246;28;20431;-73
2022/04/30 06:28:47;;;;;;;5.85;4.55;;;;;;;;;;5000473;28;20033;-75
2022/04/30 06:31:12;;;;;;;7.63;5.10;;;;;;;;;;5028772;28;20014;-73
2022/04/30 06:33:38;;;;;;;5.63;4.85;;;;;;;;;;5026673;28;20017;-74
2022/04/30 06:36:04;;;;;;;9.15;5.70;;;;;;;;;;5025354;28;20045;-75
2022/04/30 06:38:29;;;;;;;7.45;5.45;;;;;;;;;;5022643;28;20435;-74
2022/04/30 06:40:55;;;;;;;8.95;5.53;;;;;;;;;;5021120;28;20318;-73
2022/04/30 06:43:21;;;;;;;6.18;4.78;;;;;;;;;;5019831;28;20025;-74
2022/04/30 06:45:47;;;;;;;8.32;5.70;;;;;;;;;;5019571;28;20053;-74
2022/04/30 06:48:12;;;;;;;7.25;5.18;;;;;;;;;;5020990;28;20445;-74
2022/04/30 06:50:38;;;;;;;7.45;5.10;;;;;;;;;;5020822;28;20515;-75
2022/04/30 06:58:41;;;;;;;8.95;5.32;;;;;;;;;;5024496;28;20031;-74
2022/04/30 07:04:01;;;;;;;7.70;5.63;;;;;;;;;;5025165;28;20249;-74
2022/04/30 07:06:26;;;;;;;;;;;;;;;;;;5023422;28;20465;-74
2022/04/30 07:08:52;;;;;;;9.10;5.60;;;;;;;;;;5024085;28;19913;-73
2022/04/30 07:11:18;;;;;;;8.68;5.35;;;;;;;;;;5025043;28;20278;-74
2022/04/30 07:13:44;;;;;;;8.93;5.93;;;;;;;;;;5021168;28;20025;-73
2022/04/30 07:16:09;;;;;;;7.95;5.30;;;;;;;;;;5008165;28;20038;-73
2022/04/30 07:18:35;;;;;;;9.65;6.05;;;;;;;;;;5025975;28;20187;-73
2022/04/30 07:21:00;;;;;;;9.40;5.82;;;;;;;;;;5006284;28;20064;-74
2022/04/30 07:23:25;;;;;;;9.50;5.20;;;;;;;;;;5027793;28;20112;-73
2022/04/30 07:25:51;;;;;;;9.07;5.88;;;;;;;;;;5025476;28;20029;-74
2022/04/30 07:28:16;;;;;;;8.68;5.13;;;;;;;;;;5023092;28;20135;-74
2022/04/30 07:30:48;;;;;;;7.30;5.18;;;;;;;;;;5021847;28;20027;-74
2022/04/30 07:33:13;;;;;;;8.43;5.35;;;;;;;;;;5027569;28;20068;-74
2022/04/30 07:35:39;;;;;;;6.43;5.30;;;;;;;;;;5006465;28;20053;-74
2022/04/30 07:38:05;;;;;;;8.27;4.75;;;;;;;;;;5025174;28;20040;-75
2022/04/30 07:40:30;;;;;;;5.93;5.03;;;;;;;;;;5007858;28;20369;-74
2022/04/30 07:42:57;;;;;;;8.23;5.63;;;;;;;;;;5022607;28;20026;-74
2022/04/30 07:45:22;;;;;;;7.95;5.30;;;;;;;;;;5007026;28;20194;-74
2022/04/30 07:47:48;;;;;;;8.13;4.93;;;;;;;;;;5025137;28;20223;-73
2022/04/30 07:50:13;;;;;;;6.50;4.60;;;;;;;;;;5006259;28;20052;-74
2022/04/30 07:52:38;;;;;;;6.90;4.55;;;;;;;;;;5025215;28;20063;-73
2022/04/30 07:55:04;;;;;;;8.75;5.28;;;;;;;;;;5021800;28;20049;-74
2022/04/30 07:57:29;;;;;;;7.10;5.40;;;;;;;;;;5020864;28;20018;-75
2022/04/30 07:59:54;;;;;;;8.23;5.10;;;;;;;;;;5021290;28;20076;-73
2022/04/30 08:02:20;;;;;;;7.90;5.03;;;;;;;;;;5007179;28;20029;-75
2022/04/30 08:04:46;;;;;;;6.65;5.15;;;;;;;;;;5022780;28;20384;-73
2022/04/30 08:07:11;;;;;;;7.57;4.65;;;;;;;;;;5006923;28;20383;-73
2022/04/30 08:09:37;;;;;;;8.05;5.00;;;;;;;;;;5023250;28;20116;-75
2022/04/30 08:12:02;;;;;;;6.72;5.25;;;;;;;;;;5019653;28;20351;-73
2022/04/30 08:14:28;;;;;;;6.82;5.07;;;;;;;;;;5006003;28;20033;-74
2022/04/30 08:16:54;;;;;;;8.05;5.10;;;;;;;;;;5021961;28;20380;-75
2022/04/30 08:19:19;;;;;;;7.25;4.88;;;;;;;;;;5023344;28;20045;-74
2022/04/30 08:21:46;;;;;;;8.15;4.97;;;;;;;;;;5021451;28;20341;-75
2022/04/30 08:24:12;;;;;;;6.43;4.80;;;;;;;;;;5024173;28;20038;-75
2022/04/30 08:26:37;;;;;;;8.80;5.15;;;;;;;;;;5020930;28;20453;-75
2022/04/30 08:29:02;;;;;;;7.95;4.68;;;;;;;;;;5020132;28;20354;-73
2022/04/30 08:31:28;;;;;;;6.80;4.72;;;;;;;;;;5026418;28;20022;-75
2022/04/30 08:33:53;;;;;;;16.58;4.93;;;;;;;;;;5021718;28;20504;-74
2022/04/30 08:36:18;;;;;;;8.75;5.07;;;;;;;;;;5022192;28;20028;-73
2022/04/30 08:38:45;;;;;;;7.70;4.75;;;;;;;;;;5024469;28;20369;-75
2022/04/30 08:41:10;;;;;;;9.48;4.60;;;;;;;;;;5005558;28;20033;-74
2022/04/30 08:43:38;;;;;;;5.63;4.50;;;;;;;;;;5021399;28;20103;-74
2022/04/30 08:46:06;;;;;;;5.47;4.85;;;;;;;;;;5020843;28;20021;-75
2022/04/30 08:48:31;;;;;;;6.63;4.97;;;;;;;;;;5025356;28;20045;-74
2022/04/30 08:50:57;;;;;;;8.35;5.43;;;;;;;;;;5021444;28;20475;-76
2022/04/30 08:53:22;;;;;;;8.95;5.68;;;;;;;;;;5037692;28;20028;-74
2022/04/30 08:55:48;;;;;;;9.15;5.18;;;;;;;;;;5032553;28;20026;-73
2022/04/30 08:58:15;;;;;;;7.53;5.97;;;;;;;;;;5028195;28;20183;-74
2022/04/30 09:00:41;;;;;;;8.85;6.10;;;;;;;;;;5021705;28;20036;-74
2022/04/30 09:03:06;;;;;;;8.23;6.38;;;;;;;;;;5005000;28;20199;-74
2022/04/30 09:05:33;;;;;;;9.05;6.32;;;;;;;;;;5021757;28;20105;-72
2022/04/30 09:07:59;;;;;;;9.07;5.72;;;;;;;;;;5023024;28;20384;-73
2022/04/30 09:10:29;;;;;;;7.40;5.78;;;;;;;;;;5021665;28;20496;-74
2022/04/30 09:13:03;;;;;;;9.45;7.53;;;;;;;;;;5021094;28;20397;-72
2022/04/30 09:15:29;;;;;;;10.13;7.35;;;;;;;;;;5021709;28;20029;-73
2022/04/30 09:17:56;;;;;;;10.63;7.47;;;;;;;;;;5023910;28;20048;-72
2022/04/30 09:20:21;;;;;;;9.10;6.38;;;;;;;;;;5020922;28;20162;-71
2022/04/30 09:22:46;;;;;;;9.80;6.43;;;;;;;;;;5024897;28;20029;-72
2022/04/30 09:25:12;;;;;;;9.07;5.95;;;;;;;;;;5022117;28;20166;-72
2022/04/30 09:27:43;;;;;;;10.55;5.95;;;;;;;;;;5019973;28;20048;-72
2022/04/30 09:30:18;;;;;;;7.75;5.40;;;;;;;;;;5016047;28;20018;-73
2022/04/30 09:32:44;;;;;;;7.07;5.70;;;;;;;;;;5023265;28;20021;-72
2022/04/30 09:38:06;;;;;;;6.65;4.60;;;;;;;;;;5023489;28;20113;-74
2022/04/30 09:40:31;;;;;;;6.07;4.28;;;;;;;;;;5027490;28;20108;-73
2022/04/30 09:42:57;;;;;;;6.80;5.28;;;;;;;;;;5010019;28;20472;-72
2022/04/30 09:45:22;;;;;;;5.80;5.03;;;;;;;;;;5020043;28;20057;-72
2022/04/30 09:47:48;;;;;;;6.72;4.50;;;;;;;;;;5020673;28;20068;-73
2022/04/30 09:53:56;;;;;;;8.23;4.65;;;;;;;;;;5023144;28;20410;-74
2022/04/30 09:55:55;;;;;;;5.40;4.10;;;;;;;;;;5021441;28;20033;-74
2022/04/30 09:58:22;;;;;;;5.00;3.97;;;;;;;;;;5020084;28;20357;-73
2022/04/30 10:00:47;;;;;;;5.72;3.45;;;;;;;;;;5020248;28;20472;-74
2022/04/30 10:03:13;;;;;;;3.72;3.30;;;;;;;;;;5003528;28;20048;-73
2022/04/30 10:05:39;;;;;;;6.88;3.28;;;;;;;;;;5021098;28;20500;-73
2022/04/30 10:08:04;;;;;;;9.00;3.90;;;;;;;;;;5022889;28;20133;-74
2022/04/30 10:10:56;;;;;;;5.97;3.15;;;;;;;;;;5023057;28;20491;-73
2022/04/30 10:13:31;;;;;;;8.07;3.40;;;;;;;;;;5017418;28;20025;-73
2022/04/30 10:15:59;;;;;;;5.00;3.60;;;;;;;;;;5019711;28;20075;-74
2022/04/30 10:18:43;;;;;;;6.00;3.63;;;;;;;;;;5022295;28;20132;-75
2022/04/30 10:21:18;;;;;;;8.68;4.00;;;;;;;;;;5017364;28;20496;-72
2022/04/30 10:23:44;;;;;;;9.95;3.85;;;;;;;;;;5022595;28;20026;-73
2022/04/30 10:26:09;;;;;;;7.60;4.10;;;;;;;;;;5023932;28;20021;-74
2022/04/30 10:28:35;;;;;;;7.18;4.10;;;;;;;;;;5025375;28;20453;-73
2022/04/30 10:31:04;;;;;;;3.88;3.42;;;;;;;;;;5023228;28;20358;-74
2022/04/30 10:33:30;;;;;;;7.95;3.70;;;;;;;;;;5026706;28;20503;-74
2022/04/30 10:36:08;;;;;;;10.32;4.20;;;;;;;;;;5022959;28;20037;-74
2022/04/30 10:38:33;;;;;;;6.53;3.33;;;;;;;;;;5024758;28;20492;-74
2022/04/30 10:41:00;;;;;;;6.00;3.40;;;;;;;;;;5025524;28;20033;-74
2022/04/30 10:43:39;;;;;;;6.10;3.45;;;;;;;;;;5022504;28;20025;-72
2022/04/30 10:46:17;;;;;;;6.57;3.17;;;;;;;;;;5024325;28;20045;-73
2022/04/30 10:48:43;;;;;;;6.18;3.10;;;;;;;;;;5024973;28;20128;-71
2022/04/30 10:51:09;;;;;;;4.70;3.35;;;;;;;;;;5023347;28;20108;-73
2022/04/30 10:53:36;;;;;;;6.57;3.13;;;;;;;;;;5026773;28;20055;-73
2022/04/30 10:56:02;;;;;;;6.88;3.40;;;;;;;;;;5025984;28;20017;-75
2022/04/30 10:58:28;;;;;;;7.88;3.30;;;;;;;;;;5026622;28;20030;-74
2022/04/30 11:00:53;;;;;;;4.72;2.83;;;;;;;;;;5027014;28;20023;-74
2022/04/30 11:03:24;;;;;;;7.13;3.25;;;;;;;;;;5029386;28;20079;-73
2022/04/30 11:05:50;;;;;;;5.10;2.90;;;;;;;;;;5027433;28;20064;-74
2022/04/30 11:08:15;;;;;;;5.72;3.50;;;;;;;;;;5009486;28;20511;-73
2022/04/30 11:10:54;;;;;;;7.32;2.80;;;;;;;;;;5027151;28;20026;-73
2022/04/30 11:13:20;;;;;;;6.03;2.53;;;;;;;;;;5022665;28;20266;-75
2022/04/30 11:15:46;;;;;;;4.97;2.50;;;;;;;;;;5022871;28;20033;-73
2022/04/30 11:18:12;;;;;;;5.38;2.38;;;;;;;;;;5021846;28;20025;-73
2022/04/30 11:20:37;;;;;;;5.22;2.28;;;;;;;;;;5023222;28;20100;-73
2022/04/30 11:23:03;;;;;;;3.33;1.90;;;;;;;;;;5022845;28;21002;-74
2022/04/30 11:25:38;;;;;;;4.80;1.80;;;;;;;;;;5006657;28;20135;-73
2022/04/30 11:28:12;;;;;;;4.47;2.13;;;;;;;;;;5020824;28;20024;-71
2022/04/30 11:30:42;;;;;;;3.80;1.77;;;;;;;;;;5019693;28;20013;-73
2022/04/30 11:33:08;;;;;;;3.97;1.95;;;;;;;;;;5005388;28;20482;-73
2022/04/30 11:35:33;;;;;;;4.03;2.17;;;;;;;;;;5021801;28;20541;-74
2022/04/30 11:37:59;;;;;;;5.88;2.90;;;;;;;;;;5022461;28;20053;-74
2022/04/30 11:40:26;;;;;;;6.30;3.08;;;;;;;;;;5006165;28;20124;-73
2022/04/30 11:43:02;;;;;;;7.45;2.78;;;;;;;;;;5023531;28;20056;-73
2022/04/30 11:45:31;;;;;;;11.90;3.10;;;;;;;;;;5019374;28;20084;-72
2022/04/30 11:48:00;;;;;;;8.93;3.05;;;;;;;;;;5025364;28;20021;-71
2022/04/30 11:50:26;;;;;;;7.65;2.70;;;;;;;;;;5019863;28;20076;-71
2022/04/30 11:52:52;;;;;;;6.03;2.70;;;;;;;;;;5023973;28;20030;-72
2022/04/30 11:55:17;;;;;;;6.10;2.53;;;;;;;;;;5021472;28;20079;-73
2022/04/30 11:57:43;;;;;;;5.38;2.97;;;;;;;;;;5021561;28;20022;-73
2022/04/30 12:00:09;;;;;;;6.72;2.95;;;;;;;;;;5003070;28;20480;-72
2022/04/30 12:02:37;;;;;;;8.88;2.92;;;;;;;;;;5025559;28;20025;-72
2022/04/30 12:05:04;;;;;;;6.13;3.35;;;;;;;;;;5020889;28;20396;-73
2022/04/30 12:07:39;;;;;;;7.22;2.72;;;;;;;;;;5022143;28;20067;-73
2022/04/30 12:10:22;;;;;;;7.10;3.20;;;;;;;;;;5023496;28;20207;-71
2022/04/30 12:12:48;;;;;;;7.93;3.42;;;;;;;;;;5020642;28;20028;-71
2022/04/30 12:15:18;;;;;;;5.55;2.70;;;;;;;;;;5017552;28;20025;-73
2022/04/30 12:17:43;;;;;;;4.72;2.80;;;;;;;;;;5024079;28;20491;-71
2022/04/30 12:25:47;;;;;;;5.50;2.53;;;;;;;;;;5025201;28;20038;-73
2022/04/30 12:28:13;;;;;;;6.63;2.70;;;;;;;;;;5020300;28;20025;-72
2022/04/30 12:30:54;;;;;;;6.63;2.70;;;;;;;;;;5018745;28;20029;-71
2022/04/30 12:33:20;;;;;;;4.07;2.70;;;;;;;;;;5023577;28;20060;-72
2022/04/30 12:35:52;;;;;;;6.78;3.05;;;;;;;;;;5019190;28;20099;-71
2022/04/30 12:38:17;;;;;;;4.88;2.47;;;;;;;;;;5019278;28;20488;-72
2022/04/30 12:40:44;;;;;;;4.03;2.70;;;;;;;;;;5024144;28;20056;-72
2022/04/30 12:43:10;;;;;;;7.30;2.88;;;;;;;;;;5021419;28;20449;-71
2022/04/30 12:45:37;;;;;;;11.52;3.03;;;;;;;;;;5021879;28;20018;-72
2022/04/30 12:48:04;;;;;;;7.95;2.95;;;;;;;;;;5022320;28;20029;-73
2022/04/30 12:50:31;;;;;;;6.60;2.55;;;;;;;;;;5018213;28;20034;-73
2022/04/30 12:52:57;;;;;;;6.40;2.70;;;;;;;;;;5006520;28;20036;-73
2022/04/30 12:55:22;;;;;;;5.60;2.85;;;;;;;;;;5021161;28;20025;-72
2022/04/30 12:57:47;;;;;;;6.32;3.03;;;;;;;;;;5005242;28;20025;-73
2022/04/30 13:00:13;;;;;;;8.02;3.20;;;;;;;;;;5021242;28;20484;-72
2022/04/30 13:02:39;;;;;;;8.82;2.80;;;;;;;;;;5024935;28;20021;-73
2022/04/30 13:05:09;;;;;;;5.70;2.78;;;;;;;;;;5021457;28;20420;-72
2022/04/30 13:07:36;;;;;;;7.50;3.20;;;;;;;;;;5022506;28;20030;-73
2022/04/30 13:15:29;;;;;;;4.82;2.92;;;;;;;;;;5017274;28;20260;-72
2022/04/30 13:17:58;;;;;;;6.07;2.92;;;;;;;;;;5021267;28;20037;-74
2022/04/30 13:20:24;;;;;;;5.07;3.08;;;;;;;;;;5019425;28;20049;-75
2022/04/30 13:22:51;;;;;;;9.55;3.72;;;;;;;;;;5024935;28;20029;-71
2022/04/30 13:25:16;;;;;;;8.05;3.08;;;;;;;;;;5021061;28;20078;-73
2022/04/30 13:27:42;;;;;;;7.18;3.28;;;;;;;;;;5018912;28;20025;-70
2022/04/30 13:30:07;;;;;;;5.93;3.33;;;;;;;;;;5020272;28;20484;-73
2022/04/30 13:32:33;;;;;;;6.65;3.40;;;;;;;;;;5020945;28;20461;-74
2022/04/30 13:34:59;;;;;;;5.32;3.05;;;;;;;;;;5016991;28;20478;-74
2022/04/30 13:37:25;;;;;;;6.88;2.80;;;;;;;;;;5019112;28;20029;-72
2022/04/30 13:39:50;;;;;;;8.45;3.67;;;;;;;;;;5027980;28;20052;-72
2022/04/30 13:42:16;;;;;;;9.20;3.40;;;;;;;;;;5023387;28;20041;-70
2022/04/30 13:44:41;;;;;;;5.53;3.05;;;;;;;;;;5023684;28;20095;-72
2022/04/30 13:47:06;;;;;;;6.25;3.08;;;;;;;;;;5028397;28;20025;-73
2022/04/30 13:49:32;;;;;;;8.35;3.42;;;;;;;;;;5029958;28;20140;-74
2022/04/30 13:51:57;;;;;;;7.43;3.00;;;;;;;;;;5027165;28;20087;-72
2022/04/30 13:54:22;;;;;;;6.32;2.92;;;;;;;;;;5022797;28;20117;-72
2022/04/30 13:56:48;;;;;;;7.50;3.15;;;;;;;;;;5002874;28;20507;-75
2022/04/30 13:59:19;;;;;;;7.05;3.05;;;;;;;;;;5021305;28;20030;-73
2022/04/30 14:01:44;;;;;;;7.85;3.10;;;;;;;;;;5022450;28;20022;-71
2022/04/30 14:04:09;;;;;;;8.77;3.65;;;;;;;;;;5023322;28;20096;-72
2022/04/30 14:06:34;;;;;;;6.55;3.05;;;;;;;;;;5018650;28;20033;-71
2022/04/30 14:09:00;;;;;;;3.75;2.70;;;;;;;;;;5023970;28;20025;-73
2022/04/30 14:11:26;;;;;;;8.43;3.15;;;;;;;;;;5016741;28;20091;-71
2022/04/30 14:16:35;;;;;;;3.85;2.80;;;;;;;;;;5020071;28;20108;-73
2022/04/30 14:19:00;;;;;;;4.32;2.90;;;;;;;;;;5023127;28;20085;-71
2022/04/30 14:21:26;;;;;;;4.15;2.50;;;;;;;;;;5018354;28;20479;-71
2022/04/30 14:23:51;;;;;;;3.92;2.63;;;;;;;;;;5023727;28;20057;-72
2022/04/30 14:26:17;;;;;;;5.03;2.83;;;;;;;;;;5022601;28;20101;-73
2022/04/30 14:28:44;;;;;;;4.15;2.78;;;;;;;;;;5019029;28;20025;-72
2022/04/30 14:31:10;;;;;;;4.18;2.75;;;;;;;;;;5005413;28;20020;-73
2022/04/30 14:33:36;;;;;;;2.88;2.45;;;;;;;;;;5023393;28;20033;-70
2022/04/30 14:36:03;;;;;;;6.05;3.20;;;;;;;;;;5003847;28;20083;-73
2022/04/30 14:38:28;;;;;;;4.80;3.03;;;;;;;;;;5021911;28;20032;-71
2022/04/30 14:40:53;;;;;;;4.50;3.70;;;;;;;;;;5021884;28;20033;-70
2022/04/30 14:43:19;;;;;;;4.85;3.92;;;;;;;;;;5021946;28;20140;-68
2022/04/30 14:45:46;;;;;;;5.70;3.67;;;;;;;;;;4999926;28;20057;-70
2022/04/30 14:48:11;;;;;;;4.82;3.47;;;;;;;;;;5018677;28;20021;-70
2022/04/30 14:50:37;;;;;;;6.35;3.38;;;;;;;;;;5014534;28;20455;-68
2022/04/30 14:53:02;;;;;;;4.70;3.45;;;;;;;;;;4998251;28;20095;-69
2022/04/30 14:55:28;;;;;;;3.72;3.30;;;;;;;;;;5015125;28;20447;-69
2022/04/30 14:57:54;;;;;;;3.95;3.35;;;;;;;;;;5019452;28;20465;-67
2022/04/30 15:00:19;;;;;;;4.28;3.53;;;;;;;;;;5015817;28;20043;-69
2022/04/30 15:02:45;;;;;;;3.60;3.30;;;;;;;;;;5000353;28;20021;-72
2022/04/30 15:05:10;;;;;;;7.25;3.90;;;;;;;;;;5013145;28;20415;-72
2022/04/30 15:07:36;;;;;;;4.00;3.08;;;;;;;;;;5017997;28;20026;-72
2022/04/30 15:10:01;;;;;;;5.50;3.67;;;;;;;;;;5011628;28;20014;-72
2022/04/30 15:12:27;;;;;;;5.47;3.92;;;;;;;;;;5021568;28;20512;-73
2022/04/30 15:14:52;;;;;;;5.47;4.05;;;;;;;;;;5021236;28;20043;-72
2022/04/30 15:17:18;;;;;;;5.68;4.50;;;;;;;;;;5021628;28;20041;-72
2022/04/30 15:19:44;;;;;;;7.07;4.45;;;;;;;;;;5016275;28;20049;-73
2022/04/30 15:22:09;;;;;;;5.07;4.47;;;;;;;;;;5001788;28;20398;-73
2022/04/30 15:24:34;;;;;;;5.13;4.25;;;;;;;;;;5021675;28;20452;-74